Terminal Aerodrome Forecast
Issued by NWS

Home | Current Version | Previous Version | Text Only | Print | Product List | Glossary On
Versions: 1 2 3 4 5 6 7 8 9 10 11 12 13 14 15 16 17 18 19 20 21 22 23 24 25 26 27 28 29
000
FTUS45 KTFX 070225 AAK
TAFGTF
TAF AMD
KGTF 070225Z 0702/0724 33014G24KT P6SM -RA SCT020 BKN050
      TEMPO 0702/0704 3SM RA BKN030
     FM070400 29015KT P6SM -SHRA SCT025 BKN040
     FM070800 24014KT P6SM SCT040 BKN060=

USA.gov is the U.S. government's official web portal to all federal, state and local government web resources and services.